Time;durP1;ratioP1;P1;durP2;ratioP2;P2;SDS_P1;SDS_P2;PMS_P1;PMS_P2;Temp;Humidity;BMP_temperature;BMP_pressure;BME280_temperature;BME280_humidity;BME280_pressure;Samples;Min_cycle;Max_cycle;Signal;HPM_P1;HPM_P2
2021/03/09 00:01:13;;;;;;;0.70;0.50;;;3.40;99.90;;;3.97;100.00;-20790.06;5052424;28;20280;-73
2021/03/09 00:03:40;;;;;;;0.70;0.70;;;3.50;99.90;;;3.95;100.00;-20789.63;5056501;28;20769;-74
2021/03/09 00:06:06;;;;;;;0.70;0.60;;;3.50;99.90;;;3.96;100.00;-20789.78;5056193;28;20273;-73
2021/03/09 00:08:33;;;;;;;0.70;0.60;;;3.60;99.90;;;3.93;100.00;-20789.06;5056165;28;20185;-74
2021/03/09 00:11:00;;;;;;;0.70;0.60;;;3.50;99.90;;;3.91;100.00;-20788.38;5053902;28;20190;-73
2021/03/09 00:13:27;;;;;;;10.98;2.45;;;3.50;99.90;;;3.87;100.00;-20787.53;5055201;28;20215;-74
2021/03/09 00:15:55;;;;;;;1.05;0.95;;;3.40;99.90;;;3.87;100.00;-20787.53;5055894;28;20277;-73
2021/03/09 00:18:23;;;;;;;0.73;0.65;;;3.50;99.90;;;3.87;100.00;-20787.53;5056115;28;20717;-73
2021/03/09 00:20:50;;;;;;;0.70;0.60;;;3.40;99.90;;;3.85;100.00;-20787.00;5051900;28;20291;-73
2021/03/09 00:23:17;;;;;;;0.70;0.60;;;3.40;99.90;;;3.87;100.00;-20787.41;5041127;28;20205;-73
2021/03/09 00:25:44;;;;;;;0.70;0.60;;;3.40;99.90;;;3.84;100.00;-20786.72;5047127;28;20297;-73
2021/03/09 00:28:11;;;;;;;0.70;0.60;;;3.40;99.90;;;3.86;100.00;-20787.25;5046065;28;20240;-72
2021/03/09 00:30:38;;;;;;;0.70;0.50;;;3.40;99.90;;;3.87;100.00;-20787.41;5038321;28;20185;-73
2021/03/09 00:33:05;;;;;;;0.70;0.60;;;3.40;99.90;;;3.90;100.00;-20788.09;5053699;28;20759;-73
2021/03/09 00:35:34;;;;;;;0.70;0.70;;;3.40;99.90;;;3.91;100.00;-20788.53;5055514;28;20201;-73
2021/03/09 00:38:01;;;;;;;0.70;0.60;;;3.50;99.90;;;3.92;100.00;-20788.66;5055970;28;20178;-71
2021/03/09 00:40:28;;;;;;;1.52;1.42;;;3.50;99.90;;;3.86;100.00;-20787.25;5054317;28;20562;-73
2021/03/09 00:42:55;;;;;;;0.70;0.60;;;3.40;99.90;;;3.85;100.00;-20787.00;5055831;28;20170;-73
2021/03/09 00:45:21;;;;;;;0.70;0.60;;;3.40;99.90;;;3.83;100.00;-20786.28;5039552;28;20252;-73
2021/03/09 00:47:58;;;;;;;0.70;0.60;;;3.40;99.90;;;3.90;100.00;-20788.25;5035445;28;20228;-75
2021/03/09 00:50:25;;;;;;;0.70;0.60;;;3.50;99.90;;;3.92;100.00;-20788.66;5038902;28;20189;-74
2021/03/09 00:52:53;;;;;;;0.70;0.60;;;3.40;99.90;;;3.95;100.00;-20789.50;5054344;28;20611;-73
2021/03/09 00:55:19;;;;;;;1.20;1.10;;;3.50;99.90;;;3.94;100.00;-20789.34;5054666;28;20194;-73
2021/03/09 00:57:55;;;;;;;0.70;0.65;;;3.50;99.90;;;3.91;100.00;-20788.38;5055411;28;20650;-73
2021/03/09 01:00:23;;;;;;;0.70;0.60;;;3.40;99.90;;;3.88;100.00;-20787.81;5041370;28;20589;-73
2021/03/09 01:02:50;;;;;;;1.42;1.30;;;3.40;99.90;;;3.85;100.00;-20786.84;5036298;28;20193;-74
2021/03/09 01:05:19;;;;;;;0.70;0.60;;;3.40;99.90;;;3.86;100.00;-20787.13;5054940;28;20194;-72
2021/03/09 01:07:46;;;;;;;7.90;1.95;;;3.40;99.90;;;3.95;100.00;-20789.50;5035646;28;20190;-74
2021/03/09 01:10:16;;;;;;;0.70;0.60;;;3.50;99.90;;;3.97;100.00;-20790.06;5036611;28;20677;-72
2021/03/09 01:12:43;;;;;;;0.70;0.60;;;3.50;99.90;;;3.94;100.00;-20789.22;5055254;28;20196;-72
2021/03/09 01:15:12;;;;;;;3.08;2.88;;;3.50;99.90;;;3.91;100.00;-20788.53;5055170;28;20189;-73
2021/03/09 01:17:39;;;;;;;0.70;0.60;;;3.50;99.90;;;3.92;100.00;-20788.81;5046717;28;20237;-73
2021/03/09 01:20:09;;;;;;;0.70;0.60;;;3.50;99.90;;;3.91;100.00;-20788.53;5054605;28;20208;-73
2021/03/09 01:22:36;;;;;;;0.70;0.60;;;3.50;99.90;;;3.88;100.00;-20787.81;5055040;28;20772;-73
2021/03/09 01:25:06;;;;;;;0.70;0.60;;;3.40;99.90;;;3.86;100.00;-20787.13;5053572;28;20221;-73
2021/03/09 01:27:34;;;;;;;0.70;0.65;;;3.40;99.90;;;3.94;100.00;-20789.34;5055357;28;20535;-72
2021/03/09 01:30:03;;;;;;;1.05;1.02;;;3.50;99.90;;;3.91;100.00;-20788.38;5042216;28;20186;-73
2021/03/09 01:32:30;;;;;;;0.70;0.60;;;3.50;99.90;;;3.84;100.00;-20786.72;5054423;28;20198;-73
2021/03/09 01:34:57;;;;;;;0.70;0.50;;;3.40;99.90;;;3.73;100.00;-20783.66;5054421;28;20201;-73
2021/03/09 01:37:24;;;;;;;0.70;0.60;;;3.30;99.90;;;3.69;100.00;-20782.53;5054352;28;20530;-73
2021/03/09 01:39:51;;;;;;;0.70;0.60;;;3.30;99.90;;;3.71;100.00;-20783.09;5054107;28;20201;-73
2021/03/09 01:42:18;;;;;;;0.70;0.60;;;3.20;99.90;;;3.52;100.00;-20777.78;5053545;28;20646;-74
2021/03/09 01:44:46;;;;;;;0.70;0.60;;;3.10;99.90;;;3.54;100.00;-20778.34;5045281;28;20662;-73
2021/03/09 01:47:15;;;;;;;0.70;0.60;;;3.10;99.90;;;3.61;100.00;-20780.28;5051536;28;20225;-73
2021/03/09 01:49:42;;;;;;;0.70;0.60;;;3.20;99.90;;;3.47;100.00;-20776.53;5034719;28;20218;-73
2021/03/09 01:52:11;;;;;;;0.70;0.60;;;3.10;99.90;;;3.39;100.00;-20774.44;5049668;28;20278;-73
2021/03/09 01:54:40;;;;;;;0.80;0.80;;;3.00;99.90;;;3.33;100.00;-20772.75;5053899;28;20273;-74
2021/03/09 01:57:08;;;;;;;0.80;0.70;;;2.90;99.90;;;3.25;100.00;-20770.53;5053707;28;20200;-74
2021/03/09 01:59:37;;;;;;;0.70;0.60;;;2.80;99.90;;;3.23;100.00;-20769.84;5040145;28;20214;-73
2021/03/09 02:02:06;;;;;;;0.70;0.70;;;2.80;99.90;;;3.23;100.00;-20769.84;5034151;28;20182;-74
2021/03/09 02:04:33;;;;;;;0.70;0.60;;;2.80;99.90;;;3.19;100.00;-20768.84;5040149;28;20582;-73
2021/03/09 02:07:00;;;;;;;0.75;0.70;;;2.80;99.90;;;3.18;100.00;-20768.59;5053976;28;20654;-73
2021/03/09 02:09:27;;;;;;;0.70;0.60;;;2.70;99.90;;;3.19;100.00;-20768.72;5053522;28;20189;-73
2021/03/09 02:12:09;;;;;;;0.70;0.60;;;2.80;99.90;;;3.21;100.00;-20769.41;5054357;28;20600;-73
2021/03/09 02:14:48;;;;;;;0.70;0.68;;;2.80;99.90;;;3.20;100.00;-20769.13;5053325;28;20170;-72
2021/03/09 02:17:26;;;;;;;0.70;0.60;;;2.80;99.90;;;3.21;100.00;-20769.28;5052978;28;20189;-73
2021/03/09 02:21:07;;;;;;;0.70;0.60;;;2.80;99.90;;;3.25;100.00;-20770.53;5066889;28;20224;-73
2021/03/09 02:24:24;;;;;;;0.70;0.60;;;2.80;99.90;;;3.25;100.00;-20770.53;4985643;28;20721;-73
2021/03/09 02:27:17;;;;;;;0.70;0.60;;;2.90;99.90;;;3.26;100.00;-20770.81;5052889;28;20189;-73
2021/03/09 02:30:25;;;;;;;0.70;0.60;;;2.80;99.90;;;3.24;100.00;-20770.13;5052432;28;20208;-73
2021/03/09 02:33:04;;;;;;;0.70;0.60;;;2.80;99.90;;;3.20;100.00;-20769.13;5048650;28;20681;-73
2021/03/09 02:35:34;;;;;;;0.70;0.60;;;2.80;99.90;;;3.16;100.00;-20768.03;5047746;28;20189;-73
2021/03/09 02:38:08;;;;;;;0.70;0.60;;;2.70;99.90;;;3.20;100.00;-20769.13;5053749;28;20182;-74
2021/03/09 02:40:36;;;;;;;0.70;0.60;;;2.70;99.90;;;3.12;100.00;-20767.03;5053922;28;20676;-74
2021/03/09 02:43:09;;;;;;;0.70;0.60;;;2.70;99.90;;;3.05;100.00;-20765.09;5052712;28;20225;-73
2021/03/09 02:45:39;;;;;;;0.70;0.70;;;2.60;99.90;;;3.06;100.00;-20765.22;5053229;28;20190;-73
2021/03/09 02:48:09;;;;;;;0.70;0.70;;;2.60;99.90;;;3.11;100.00;-20766.63;5052140;28;20217;-72
2021/03/09 02:50:37;;;;;;;0.82;0.82;;;2.70;99.90;;;3.05;100.00;-20765.09;5052532;28;20198;-73
2021/03/09 02:53:11;;;;;;;0.70;0.60;;;2.70;99.90;;;3.01;100.00;-20763.84;5051575;28;20241;-74
2021/03/09 02:55:41;;;;;;;0.70;0.60;;;2.60;99.90;;;2.96;100.00;-20762.44;5052337;28;20193;-73
2021/03/09 02:58:13;;;;;;;0.73;0.70;;;2.50;99.90;;;2.95;100.00;-20762.16;5051801;28;20189;-71
2021/03/09 03:00:42;;;;;;;0.70;0.50;;;2.50;99.90;;;3.03;100.00;-20764.53;5033390;28;20202;-73
2021/03/09 03:03:12;;;;;;;0.73;0.70;;;2.70;99.90;;;3.04;100.00;-20764.81;5033588;28;20221;-73
2021/03/09 03:05:40;;;;;;;0.70;0.60;;;2.70;99.90;;;3.07;100.00;-20765.50;5037714;28;20189;-73
2021/03/09 03:08:10;;;;;;;0.70;0.60;;;2.70;99.90;;;3.04;100.00;-20764.69;5052812;28;20288;-73
2021/03/09 03:10:42;;;;;;;0.70;0.60;;;2.70;99.90;;;2.96;100.00;-20762.59;5053284;28;20200;-73
2021/03/09 03:13:11;;;;;;;1.13;1.02;;;2.60;99.90;;;2.82;100.00;-20758.81;5041115;28;20540;-73
2021/03/09 03:15:40;;;;;;;0.70;0.70;;;2.50;99.90;;;2.70;100.00;-20755.47;5040707;28;20272;-73
2021/03/09 03:18:14;;;;;;;0.70;0.60;;;2.30;99.90;;;2.68;100.00;-20754.91;5050163;28;20206;-73
2021/03/09 03:20:42;;;;;;;0.70;0.65;;;2.30;99.90;;;2.59;100.00;-20752.53;5052427;28;20200;-72
2021/03/09 03:23:11;;;;;;;0.70;0.60;;;2.20;99.90;;;2.57;100.00;-20751.84;5042493;28;20179;-73
2021/03/09 03:25:38;;;;;;;0.70;0.70;;;2.20;99.90;;;2.60;100.00;-20752.66;5042237;28;20673;-73
2021/03/09 03:28:08;;;;;;;0.70;0.70;;;2.20;99.90;;;2.66;100.00;-20754.34;5053148;28;20193;-73
2021/03/09 03:30:35;;;;;;;0.70;0.60;;;2.30;99.90;;;2.67;100.00;-20754.75;5053004;28;20239;-73
2021/03/09 03:33:03;;;;;;;0.70;0.65;;;2.30;99.90;;;2.70;100.00;-20755.31;5041795;28;20574;-73
2021/03/09 03:35:32;;;;;;;0.70;0.60;;;2.20;99.90;;;2.75;100.00;-20756.72;5050526;28;20267;-73
2021/03/09 03:38:01;;;;;;;0.70;0.65;;;2.30;99.90;;;2.80;100.00;-20758.25;5053143;28;20182;-74
2021/03/09 03:40:28;;;;;;;0.70;0.60;;;2.30;99.90;;;2.90;100.00;-20761.03;5052321;28;20242;-73
2021/03/09 03:42:55;;;;;;;0.70;0.70;;;2.40;99.90;;;2.95;100.00;-20762.16;5043207;28;20217;-73
2021/03/09 03:45:24;;;;;;;0.70;0.60;;;2.40;99.90;;;3.00;100.00;-20763.69;5049901;28;20271;-73
2021/03/09 03:47:56;;;;;;;0.73;0.70;;;2.50;99.90;;;3.03;100.00;-20764.53;5051148;28;20513;-73
2021/03/09 03:50:25;;;;;;;0.80;0.75;;;2.50;99.90;;;3.19;100.00;-20768.72;5057316;28;20271;-72
2021/03/09 03:53:01;;;;;;;0.70;0.70;;;2.60;99.90;;;3.36;100.00;-20773.59;5051211;28;20593;-73
2021/03/09 03:55:48;;;;;;;0.80;0.70;;;2.80;99.90;;;3.45;100.00;-20775.84;5052780;28;20217;-73
2021/03/09 03:58:24;;;;;;;2.60;1.20;;;2.90;99.90;;;3.55;100.00;-20778.75;5052629;28;20182;-72
2021/03/09 04:00:52;;;;;;;0.70;0.68;;;3.00;99.90;;;3.61;100.00;-20780.44;5052284;28;20247;-70
2021/03/09 04:03:21;;;;;;;1.10;1.00;;;3.10;99.90;;;3.68;100.00;-20782.25;5050419;28;20245;-73
2021/03/09 04:05:50;;;;;;;0.70;0.68;;;3.10;99.90;;;3.75;100.00;-20784.19;5052186;28;20190;-73
2021/03/09 04:08:18;;;;;;;0.80;0.70;;;3.20;99.90;;;3.80;100.00;-20785.59;5052540;28;20181;-72
2021/03/09 04:10:50;;;;;;;0.70;0.60;;;3.20;99.90;;;3.76;100.00;-20784.47;5051498;28;20182;-73
2021/03/09 04:13:18;;;;;;;1.23;1.13;;;3.20;99.90;;;3.79;100.00;-20785.31;5052195;28;20199;-73
2021/03/09 04:15:46;;;;;;;1.33;1.23;;;3.20;99.90;;;3.77;100.00;-20784.63;5052582;28;20186;-73
2021/03/09 04:18:16;;;;;;;0.70;0.70;;;3.20;99.90;;;3.76;100.00;-20784.47;5038240;28;20217;-72
2021/03/09 04:20:44;;;;;;;0.70;0.70;;;3.30;99.90;;;3.73;100.00;-20783.50;5036857;28;20756;-72
2021/03/09 04:23:15;;;;;;;0.70;0.60;;;3.20;99.90;;;3.73;100.00;-20783.66;5045743;28;20192;-73
2021/03/09 04:25:43;;;;;;;0.70;0.70;;;3.30;99.90;;;3.69;100.00;-20782.53;5047025;28;20280;-73
2021/03/09 04:28:11;;;;;;;0.75;0.75;;;3.20;99.90;;;3.67;100.00;-20781.81;5054363;28;20209;-73
2021/03/09 04:30:40;;;;;;;0.70;0.60;;;3.20;99.90;;;3.67;100.00;-20781.81;5056515;28;20194;-73
2021/03/09 04:33:09;;;;;;;0.70;0.63;;;3.20;99.90;;;3.67;100.00;-20781.97;5053240;28;20217;-72
2021/03/09 04:35:36;;;;;;;0.70;0.60;;;3.20;99.90;;;3.60;100.00;-20780.00;5060528;28;20200;-72
2021/03/09 04:38:03;;;;;;;0.70;0.60;;;3.20;99.90;;;3.57;100.00;-20779.19;5048630;28;20259;-73
2021/03/09 04:40:33;;;;;;;1.38;1.27;;;3.10;99.90;;;3.54;100.00;-20778.34;5037387;28;20216;-72
2021/03/09 04:43:03;;;;;;;0.70;0.60;;;3.10;99.90;;;3.50;100.00;-20777.22;5055899;28;20622;-73
2021/03/09 04:45:31;;;;;;;0.70;0.60;;;3.10;99.90;;;3.50;100.00;-20777.22;5054596;28;20166;-72
2021/03/09 04:48:01;;;;;;;0.70;0.70;;;3.00;99.90;;;3.50;100.00;-20777.22;5046159;28;20234;-71
2021/03/09 04:50:30;;;;;;;0.70;0.60;;;3.10;99.90;;;3.60;100.00;-20780.00;5063112;28;20186;-72
2021/03/09 04:52:58;;;;;;;0.70;0.60;;;3.10;99.90;;;3.63;100.00;-20780.84;5059642;28;20291;-73
2021/03/09 04:55:26;;;;;;;0.70;0.60;;;3.20;99.90;;;3.75;100.00;-20784.19;5059850;28;20530;-72
2021/03/09 04:57:53;;;;;;;0.70;0.60;;;3.20;99.90;;;3.70;100.00;-20782.81;5062227;28;20603;-72
2021/03/09 05:00:24;;;;;;;0.70;0.60;;;3.20;99.90;;;3.70;100.00;-20782.81;5052812;28;20301;-72
2021/03/09 05:02:53;;;;;;;0.70;0.60;;;3.20;99.90;;;3.67;100.00;-20781.97;5055066;28;20193;-72
2021/03/09 05:05:23;;;;;;;0.70;0.60;;;3.20;99.90;;;3.67;100.00;-20781.97;5065075;28;20191;-72
2021/03/09 05:07:52;;;;;;;0.70;0.60;;;3.20;99.90;;;3.69;100.00;-20782.53;5048998;28;20202;-72
2021/03/09 05:10:20;;;;;;;0.70;0.60;;;3.20;99.90;;;3.69;100.00;-20782.53;5033438;28;20252;-71
2021/03/09 05:12:49;;;;;;;0.70;0.60;;;3.20;99.90;;;3.77;100.00;-20784.75;5032689;28;20217;-72
2021/03/09 05:15:19;;;;;;;0.80;0.70;;;3.20;99.90;;;3.71;100.00;-20783.09;5035465;28;20698;-73
2021/03/09 05:17:47;;;;;;;0.70;0.60;;;3.30;99.90;;;3.76;100.00;-20784.47;5036292;28;20189;-73
2021/03/09 05:20:19;;;;;;;0.70;0.60;;;3.30;99.90;;;3.76;100.00;-20784.47;5034035;28;20209;-73
2021/03/09 05:22:46;;;;;;;1.40;1.30;;;3.20;99.90;;;3.76;100.00;-20784.47;5035197;28;20178;-72
2021/03/09 05:25:15;;;;;;;0.70;0.60;;;3.30;99.90;;;3.77;100.00;-20784.63;5043594;28;20556;-72
2021/03/09 05:27:44;;;;;;;0.70;0.60;;;3.30;99.90;;;3.77;100.00;-20784.63;5035164;28;20251;-72
2021/03/09 05:30:14;;;;;;;0.70;0.60;;;3.30;99.90;;;3.76;100.00;-20784.47;5055254;28;20185;-72
2021/03/09 05:32:42;;;;;;;0.70;0.60;;;3.30;99.90;;;3.78;100.00;-20785.03;5053545;28;20190;-72
2021/03/09 05:35:13;;;;;;;0.70;0.70;;;3.30;99.90;;;3.85;100.00;-20786.84;5054690;28;20184;-72
2021/03/09 05:37:42;;;;;;;0.70;0.60;;;3.30;99.90;;;3.95;100.00;-20789.50;5055222;28;20634;-72
2021/03/09 05:40:11;;;;;;;0.70;0.60;;;3.30;99.90;;;3.86;100.00;-20787.25;5053609;28;20221;-72
2021/03/09 05:42:39;;;;;;;0.70;0.68;;;3.30;99.90;;;3.76;100.00;-20784.47;5034948;28;20179;-72
2021/03/09 05:45:07;;;;;;;0.70;0.60;;;3.30;99.90;;;3.75;100.00;-20784.19;5035024;28;20190;-72
2021/03/09 05:47:35;;;;;;;0.70;0.50;;;3.30;99.90;;;3.83;100.00;-20786.44;5034558;28;20466;-72
2021/03/09 05:50:04;;;;;;;0.70;0.60;;;3.30;99.90;;;3.81;100.00;-20785.88;5040908;28;20265;-72
2021/03/09 05:52:35;;;;;;;0.70;0.70;;;3.30;99.90;;;3.82;100.00;-20786.00;5053259;28;20586;-72
2021/03/09 05:55:04;;;;;;;1.02;0.90;;;3.30;99.90;;;3.84;100.00;-20786.72;5068244;28;20537;-72
2021/03/09 05:57:31;;;;;;;0.70;0.60;;;3.30;99.90;;;3.83;100.00;-20786.44;5054723;28;20182;-72
2021/03/09 05:59:58;;;;;;;0.80;0.80;;;3.30;99.90;;;3.87;100.00;-20787.53;5069657;28;20608;-72
2021/03/09 06:02:25;;;;;;;0.70;0.60;;;3.30;99.90;;;3.86;100.00;-20787.25;5053769;28;20519;-72
2021/03/09 06:04:53;;;;;;;0.70;0.60;;;3.30;99.90;;;3.94;100.00;-20789.22;5052876;28;20313;-72
2021/03/09 06:07:21;;;;;;;0.70;0.60;;;3.30;99.90;;;3.97;100.00;-20790.06;5054361;28;20272;-72
2021/03/09 06:09:48;;;;;;;0.70;0.60;;;3.40;99.90;;;3.91;100.00;-20788.38;5054564;28;20648;-72
2021/03/09 06:12:18;;;;;;;0.68;0.60;;;3.40;99.90;;;3.98;100.00;-20790.34;5037173;28;20256;-72
2021/03/09 06:15:03;;;;;;;0.70;0.60;;;3.40;99.90;;;3.98;100.00;-20790.34;5034242;28;20697;-72
2021/03/09 06:17:35;;;;;;;0.70;0.60;;;3.40;99.90;;;4.04;100.00;-20792.00;5032778;28;20253;-72
2021/03/09 06:20:27;;;;;;;0.70;0.60;;;3.40;99.90;;;4.11;100.00;-20794.09;5033910;28;20607;-71
2021/03/09 06:22:58;;;;;;;0.70;0.60;;;3.50;99.90;;;4.16;100.00;-20795.22;5034480;28;20196;-72
2021/03/09 06:25:29;;;;;;;0.70;0.50;;;3.50;99.90;;;4.14;100.00;-20794.66;5042647;28;20626;-73
2021/03/09 06:28:02;;;;;;;0.70;0.60;;;3.50;99.90;;;4.08;100.00;-20793.13;5054001;28;20178;-72
2021/03/09 06:30:32;;;;;;;0.70;0.60;;;3.50;99.90;;;4.09;100.00;-20793.41;5069611;28;20181;-72
2021/03/09 06:33:00;;;;;;;0.70;0.60;;;3.50;99.90;;;4.24;100.00;-20797.44;5054071;28;20206;-72
2021/03/09 06:35:37;;;;;;;0.70;0.60;;;3.60;99.90;;;4.13;100.00;-20794.38;5053402;28;20265;-73
2021/03/09 06:38:22;;;;;;;0.70;0.60;;;3.60;99.90;;;4.12;100.00;-20794.22;5054150;28;20189;-73
2021/03/09 06:41:10;;;;;;;0.70;0.60;;;3.60;99.90;;;4.27;100.00;-20798.41;5052852;28;20212;-72
2021/03/09 06:43:39;;;;;;;0.70;0.60;;;3.60;99.90;;;4.21;100.00;-20796.75;5053742;28;20177;-73
2021/03/09 06:46:17;;;;;;;0.70;0.60;;;3.60;99.90;;;4.25;100.00;-20797.84;5053159;28;20178;-73
2021/03/09 06:48:47;;;;;;;0.70;0.70;;;3.60;99.90;;;4.17;100.00;-20795.50;5053264;28;20209;-73
2021/03/09 06:51:31;;;;;;;0.70;0.60;;;3.60;99.90;;;4.22;100.00;-20796.88;5053860;28;20674;-73
2021/03/09 06:54:04;;;;;;;0.70;0.60;;;3.60;99.90;;;4.28;100.00;-20798.69;5052541;28;20276;-73
2021/03/09 06:56:34;;;;;;;0.70;0.60;;;3.60;99.90;;;4.28;100.00;-20798.56;5053381;28;20256;-72
2021/03/09 06:59:22;;;;;;;0.70;0.60;;;3.60;99.90;;;4.23;100.00;-20797.16;5053388;28;20185;-72
2021/03/09 07:02:04;;;;;;;0.70;0.60;;;3.60;99.90;;;4.17;100.00;-20795.63;5052185;28;20209;-72
2021/03/09 07:04:32;;;;;;;0.73;0.73;;;3.60;99.90;;;4.15;100.00;-20795.06;5053076;28;20701;-73
2021/03/09 07:06:59;;;;;;;0.70;0.60;;;3.60;99.90;;;4.16;100.00;-20795.34;5052956;28;20193;-72
2021/03/09 07:09:27;;;;;;;0.70;0.60;;;3.60;99.90;;;4.31;100.00;-20799.53;5053298;28;20281;-74
2021/03/09 07:11:55;;;;;;;0.70;0.70;;;3.60;99.90;;;4.29;100.00;-20798.97;5051858;28;20208;-72
2021/03/09 07:14:24;;;;;;;0.70;0.60;;;3.60;99.90;;;4.32;100.00;-20799.81;5053124;28;20188;-72
2021/03/09 07:16:52;;;;;;;0.80;0.70;;;3.60;99.90;;;4.27;100.00;-20798.28;5034062;28;20695;-72
2021/03/09 07:19:25;;;;;;;0.68;0.60;;;3.70;99.90;;;4.32;100.00;-20799.66;5046879;28;20212;-73
2021/03/09 07:21:55;;;;;;;0.70;0.60;;;3.70;99.90;;;4.38;100.00;-20801.19;5052290;28;20296;-74
2021/03/09 07:24:22;;;;;;;0.70;0.60;;;3.70;99.90;;;4.28;100.00;-20798.69;5053331;28;20190;-73
2021/03/09 07:26:56;;;;;;;0.70;0.60;;;3.70;99.90;;;4.29;100.00;-20798.84;5015892;28;20228;-73
2021/03/09 07:29:27;;;;;;;1.35;1.13;;;3.70;99.90;;;4.36;100.00;-20800.94;5035493;28;20198;-72
2021/03/09 07:31:56;;;;;;;0.70;0.60;;;3.70;99.90;;;4.41;100.00;-20802.03;5040522;28;20205;-74
2021/03/09 07:34:26;;;;;;;0.70;0.60;;;3.80;99.90;;;4.41;100.00;-20802.03;5032883;28;20214;-73
2021/03/09 07:36:55;;;;;;;0.70;0.60;;;3.70;99.90;;;4.53;100.00;-20805.38;5033185;28;20272;-73
2021/03/09 07:39:22;;;;;;;0.70;0.60;;;3.70;99.90;;;4.45;100.00;-20803.16;5033316;28;20213;-72
2021/03/09 07:41:50;;;;;;;0.70;0.60;;;3.80;99.90;;;4.52;100.00;-20805.09;5032284;28;20237;-71
2021/03/09 07:44:19;;;;;;;0.70;0.60;;;3.80;99.90;;;4.48;100.00;-20804.00;5034121;28;20240;-72
2021/03/09 07:46:46;;;;;;;0.70;0.60;;;3.80;99.90;;;4.40;100.00;-20801.75;5031672;28;20190;-72
2021/03/09 07:49:14;;;;;;;0.70;0.60;;;3.80;99.90;;;4.46;100.00;-20803.56;5036295;28;20213;-70
2021/03/09 07:52:13;;;;;;;0.70;0.60;;;3.80;99.90;;;4.40;100.00;-20801.75;5041757;28;20221;-73
2021/03/09 07:55:00;;;;;;;0.70;0.60;;;3.80;99.90;;;4.18;100.00;-20795.91;5048345;28;20692;-72
2021/03/09 07:57:28;;;;;;;0.70;0.60;;;3.70;99.90;;;4.11;100.00;-20794.09;5077141;28;20208;-73
2021/03/09 07:59:57;;;;;;;0.70;0.60;;;3.70;99.90;;;4.23;100.00;-20797.31;5073852;28;20196;-72
2021/03/09 08:02:52;;;;;;;0.70;0.60;;;3.70;99.90;;;4.17;100.00;-20795.63;5056614;28;20657;-70
2021/03/09 08:05:23;;;;;;;0.70;0.60;;;3.60;99.90;;;4.22;100.00;-20797.03;5055581;28;20733;-70
2021/03/09 08:07:57;;;;;;;1.42;1.27;;;3.60;99.90;;;4.15;100.00;-20794.94;5056066;28;20189;-72
2021/03/09 08:10:50;;;;;;;0.70;0.60;;;3.60;99.90;;;4.26;100.00;-20798.13;5057155;28;20173;-70
2021/03/09 08:13:26;;;;;;;0.70;0.57;;;3.60;99.90;;;4.07;100.00;-20792.84;5051113;28;20186;-71
2021/03/09 08:16:31;;;;;;;0.70;0.60;;;3.60;99.90;;;4.20;100.00;-20796.31;5036990;28;20194;-71
2021/03/09 08:19:05;;;;;;;0.70;0.60;;;3.60;99.90;;;4.08;100.00;-20793.13;5045905;28;20346;-71
2021/03/09 08:21:54;;;;;;;0.70;0.60;;;3.60;99.90;;;4.02;100.00;-20791.59;5047746;28;20256;-71
2021/03/09 08:24:52;;;;;;;0.70;0.60;;;3.50;99.90;;;4.01;100.00;-20791.16;5056493;28;20212;-71
2021/03/09 08:27:41;;;;;;;0.70;0.60;;;3.50;99.90;;;4.05;100.00;-20792.44;5036551;28;20170;-71
2021/03/09 08:30:34;;;;;;;2.35;1.50;;;3.50;99.90;;;3.97;100.00;-20790.06;5035069;28;20190;-71
2021/03/09 08:33:36;;;;;;;0.70;0.60;;;3.40;99.90;;;4.06;100.00;-20792.56;5035863;28;20564;-71
2021/03/09 08:36:31;;;;;;;0.85;0.85;;;3.40;99.90;;;4.07;100.00;-20792.84;5036232;28;20232;-71
2021/03/09 08:39:15;;;;;;;0.70;0.60;;;3.50;99.90;;;4.12;100.00;-20794.22;5036212;28;20675;-72
2021/03/09 08:42:02;;;;;;;0.70;0.60;;;3.50;99.90;;;4.16;100.00;-20795.34;5036159;28;20282;-72
2021/03/09 08:44:31;;;;;;;0.70;0.60;;;3.50;99.90;;;3.98;100.00;-20790.47;5047875;28;20273;-72
2021/03/09 08:47:02;;;;;;;0.70;0.60;;;3.50;99.90;;;4.07;100.00;-20792.97;5055403;28;20189;-71
2021/03/09 08:49:51;;;;;;;0.80;0.68;;;3.50;99.90;;;4.04;100.00;-20792.00;5055561;28;20210;-71
2021/03/09 08:52:45;;;;;;;0.70;0.70;;;3.60;99.90;;;4.21;100.00;-20796.59;5055860;28;20197;-71
2021/03/09 08:55:12;;;;;;;0.70;0.60;;;3.60;99.90;;;4.23;100.00;-20797.31;5026937;28;20673;-70
2021/03/09 08:57:39;;;;;;;0.70;0.60;;;3.60;99.90;;;4.27;100.00;-20798.41;5075775;28;20216;-71
2021/03/09 09:00:11;;;;;;;0.70;0.60;;;3.60;99.90;;;4.14;100.00;-20794.78;5075891;28;20211;-72
2021/03/09 09:02:42;;;;;;;0.70;0.57;;;3.60;99.90;;;4.17;100.00;-20795.50;5058309;28;20615;-72
2021/03/09 09:05:12;;;;;;;0.70;0.60;;;3.70;99.90;;;4.30;100.00;-20799.25;5055321;28;20260;-71
2021/03/09 09:07:41;;;;;;;0.70;0.60;;;3.70;99.90;;;4.43;100.00;-20802.59;5053951;28;20182;-72
2021/03/09 09:10:12;;;;;;;0.70;0.60;;;3.70;99.90;;;4.25;100.00;-20797.84;5055618;28;20192;-73
2021/03/09 09:12:41;;;;;;;0.70;0.60;;;3.70;99.90;;;4.22;100.00;-20797.03;5052426;28;20182;-71
2021/03/09 09:15:32;;;;;;;0.70;0.70;;;3.70;99.90;;;4.29;100.00;-20798.97;5035293;28;20269;-71
2021/03/09 09:18:03;;;;;;;0.70;0.60;;;3.70;99.90;;;4.53;100.00;-20805.53;5035306;28;20218;-71
2021/03/09 09:20:34;;;;;;;0.70;0.60;;;3.80;99.90;;;4.63;100.00;-20808.16;5035187;28;20229;-70
2021/03/09 09:23:10;;;;;;;0.70;0.60;;;3.90;99.90;;;4.70;100.00;-20810.13;5035171;28;20179;-72
2021/03/09 09:25:41;;;;;;;0.70;0.60;;;3.90;99.90;;;4.65;100.00;-20808.72;5048775;28;20213;-71
2021/03/09 09:28:09;;;;;;;0.70;0.60;;;3.90;99.90;;;4.57;100.00;-20806.50;5054183;28;20178;-71
2021/03/09 09:30:40;;;;;;;0.70;0.60;;;3.90;99.90;;;4.42;100.00;-20802.31;5055108;28;20174;-71
2021/03/09 09:33:10;;;;;;;0.70;0.60;;;3.90;99.90;;;4.46;100.00;-20803.44;5055416;28;20585;-71
2021/03/09 09:35:39;;;;;;;0.70;0.60;;;3.90;99.90;;;4.57;100.00;-20806.50;5054498;28;20676;-71
2021/03/09 09:38:10;;;;;;;0.68;0.60;;;3.80;99.90;;;4.54;100.00;-20805.81;5054868;28;20186;-71
2021/03/09 09:40:40;;;;;;;0.80;0.80;;;3.90;99.90;;;4.75;100.00;-20811.50;5054932;28;20193;-71
2021/03/09 09:43:10;;;;;;;0.70;0.60;;;4.00;99.90;;;4.76;100.00;-20811.66;5050897;28;20182;-71
2021/03/09 09:45:43;;;;;;;0.70;0.60;;;4.00;99.90;;;4.85;100.00;-20814.16;5035811;28;20526;-72
2021/03/09 09:48:14;;;;;;;0.70;0.60;;;4.10;99.90;;;4.76;100.00;-20811.66;5034617;28;20214;-71
2021/03/09 09:50:45;;;;;;;0.70;0.60;;;4.10;99.90;;;4.96;100.00;-20817.09;5034473;28;20635;-71
2021/03/09 09:53:13;;;;;;;0.80;0.70;;;4.10;99.90;;;4.89;100.00;-20815.13;5051704;28;20178;-71
2021/03/09 09:55:40;;;;;;;0.70;0.70;;;4.20;99.90;;;4.89;100.00;-20815.13;5065414;28;20197;-69
2021/03/09 09:58:07;;;;;;;0.70;0.60;;;4.10;99.90;;;4.62;100.00;-20807.88;5073438;28;20714;-71
2021/03/09 10:00:35;;;;;;;0.70;0.60;;;3.90;99.90;;;4.64;100.00;-20808.44;5074447;28;20608;-72
2021/03/09 10:03:14;;;;;;;0.73;0.73;;;3.70;99.90;;;4.65;100.00;-20808.72;5073991;28;20712;-71
2021/03/09 10:05:44;;;;;;;0.70;0.57;;;3.70;99.90;;;4.67;100.00;-20809.13;5055784;28;20185;-72
2021/03/09 10:08:29;;;;;;;0.70;0.60;;;3.70;99.90;;;4.56;100.00;-20806.22;5054339;28;20185;-71
2021/03/09 10:10:59;;;;;;;0.70;0.60;;;3.80;99.90;;;4.49;100.00;-20804.25;5054212;28;20201;-71
2021/03/09 10:13:26;;;;;;;0.70;0.60;;;3.90;99.90;;;4.49;100.00;-20804.25;5052465;28;20272;-71
2021/03/09 10:15:53;;;;;;;0.70;0.60;;;3.90;99.90;;;4.46;100.00;-20803.44;5054143;28;20213;-71
2021/03/09 10:18:30;;;;;;;1.55;1.45;;;3.80;99.90;;;4.49;100.00;-20804.41;5053060;28;20241;-73
2021/03/09 10:21:12;;;;;;;0.70;0.60;;;3.70;99.90;;;4.48;100.00;-20804.00;5053613;28;20276;-71
2021/03/09 10:23:55;;;;;;;1.52;1.13;;;3.70;99.90;;;4.38;100.00;-20801.19;5045565;28;20194;-74
2021/03/09 10:26:35;;;;;;;0.70;0.60;;;3.80;99.90;;;4.43;100.00;-20802.59;5050203;28;20197;-71
2021/03/09 10:29:12;;;;;;;0.90;0.90;;;3.80;99.90;;;4.44;100.00;-20802.88;5054156;28;20181;-71
2021/03/09 10:31:42;;;;;;;0.70;0.70;;;3.80;99.90;;;4.39;100.00;-20801.63;5054018;28;20622;-72
2021/03/09 10:34:11;;;;;;;0.70;0.60;;;3.70;99.90;;;4.32;100.00;-20799.66;5053451;28;20209;-72
2021/03/09 10:36:53;;;;;;;0.70;0.60;;;3.70;99.90;;;4.34;100.00;-20800.22;5053732;28;20192;-72
2021/03/09 10:39:23;;;;;;;0.70;0.60;;;3.70;99.90;;;4.35;100.00;-20800.66;5054179;28;20204;-71
2021/03/09 10:41:50;;;;;;;0.70;0.50;;;3.70;99.90;;;4.52;100.00;-20805.09;5052149;28;20294;-73